sensor_id;sensor_type;location;lat;lon;timestamp;temperature;humidity
47350;DHT22;33088;51.982;5.872;2022-10-16T00:00:38;11.40;99.90
47350;DHT22;33088;51.982;5.872;2022-10-16T00:03:04;11.40;99.90
47350;DHT22;33088;51.982;5.872;2022-10-16T00:05:31;11.30;99.90
47350;DHT22;33088;51.982;5.872;2022-10-16T00:07:56;11.30;99.90
47350;DHT22;33088;51.982;5.872;2022-10-16T00:10:23;11.30;99.90
47350;DHT22;33088;51.982;5.872;2022-10-16T00:12:49;11.30;99.90
47350;DHT22;33088;51.982;5.872;2022-10-16T00:15:15;11.40;99.90
47350;DHT22;33088;51.982;5.872;2022-10-16T00:17:40;11.40;99.90
47350;DHT22;33088;51.982;5.872;2022-10-16T00:20:06;11.50;99.90
47350;DHT22;33088;51.982;5.872;2022-10-16T00:22:33;11.50;99.90
47350;DHT22;33088;51.982;5.872;2022-10-16T00:24:58;11.50;99.90
47350;DHT22;33088;51.982;5.872;2022-10-16T00:27:24;11.60;99.90
47350;DHT22;33088;51.982;5.872;2022-10-16T00:29:51;11.70;99.90
47350;DHT22;33088;51.982;5.872;2022-10-16T00:32:18;11.70;99.90
47350;DHT22;33088;51.982;5.872;2022-10-16T00:34:43;11.70;99.90
47350;DHT22;33088;51.982;5.872;2022-10-16T00:37:09;11.70;99.90
47350;DHT22;33088;51.982;5.872;2022-10-16T00:39:35;11.70;99.90
47350;DHT22;33088;51.982;5.872;2022-10-16T00:42:00;11.70;99.90
47350;DHT22;33088;51.982;5.872;2022-10-16T00:47:27;11.80;99.90
47350;DHT22;33088;51.982;5.872;2022-10-16T00:50:09;11.70;99.90
47350;DHT22;33088;51.982;5.872;2022-10-16T00:52:36;11.60;99.90
47350;DHT22;33088;51.982;5.872;2022-10-16T00:55:04;11.70;99.90
47350;DHT22;33088;51.982;5.872;2022-10-16T00:57:31;11.60;99.90
47350;DHT22;33088;51.982;5.872;2022-10-16T00:59:57;11.60;99.90
47350;DHT22;33088;51.982;5.872;2022-10-16T01:02:23;11.60;99.90
47350;DHT22;33088;51.982;5.872;2022-10-16T01:04:51;11.60;99.90
47350;DHT22;33088;51.982;5.872;2022-10-16T01:10:44;11.60;99.90
47350;DHT22;33088;51.982;5.872;2022-10-16T01:13:31;11.60;99.90
47350;DHT22;33088;51.982;5.872;2022-10-16T01:16:07;11.60;99.90
47350;DHT22;33088;51.982;5.872;2022-10-16T01:18:56;11.60;99.90
47350;DHT22;33088;51.982;5.872;2022-10-16T01:21:29;11.80;99.90
47350;DHT22;33088;51.982;5.872;2022-10-16T01:24:15;11.70;99.90
47350;DHT22;33088;51.982;5.872;2022-10-16T01:26:49;11.60;99.90
47350;DHT22;33088;51.982;5.872;2022-10-16T01:29:29;11.70;99.90
47350;DHT22;33088;51.982;5.872;2022-10-16T01:32:02;11.70;99.90
47350;DHT22;33088;51.982;5.872;2022-10-16T01:34:38;11.70;99.90
47350;DHT22;33088;51.982;5.872;2022-10-16T01:37:12;11.70;99.90
47350;DHT22;33088;51.982;5.872;2022-10-16T01:39:39;11.70;99.90
47350;DHT22;33088;51.982;5.872;2022-10-16T01:42:28;11.70;99.90
47350;DHT22;33088;51.982;5.872;2022-10-16T01:44:56;11.80;99.90
47350;DHT22;33088;51.982;5.872;2022-10-16T01:47:25;11.70;99.90
47350;DHT22;33088;51.982;5.872;2022-10-16T01:49:52;11.70;99.90
47350;DHT22;33088;51.982;5.872;2022-10-16T01:52:25;11.70;99.90
47350;DHT22;33088;51.982;5.872;2022-10-16T01:54:54;11.70;99.90
47350;DHT22;33088;51.982;5.872;2022-10-16T01:57:21;11.70;99.90
47350;DHT22;33088;51.982;5.872;2022-10-16T01:59:52;11.80;99.90
47350;DHT22;33088;51.982;5.872;2022-10-16T02:02:20;11.80;99.90
47350;DHT22;33088;51.982;5.872;2022-10-16T02:04:57;11.80;99.90
47350;DHT22;33088;51.982;5.872;2022-10-16T02:07:24;11.90;99.90
47350;DHT22;33088;51.982;5.872;2022-10-16T02:09:49;11.90;99.90
47350;DHT22;33088;51.982;5.872;2022-10-16T02:12:22;12.00;99.90
47350;DHT22;33088;51.982;5.872;2022-10-16T02:14:49;11.90;99.90
47350;DHT22;33088;51.982;5.872;2022-10-16T02:17:17;11.90;99.90
47350;DHT22;33088;51.982;5.872;2022-10-16T02:19:44;11.90;99.90
47350;DHT22;33088;51.982;5.872;2022-10-16T02:22:47;11.90;99.90
47350;DHT22;33088;51.982;5.872;2022-10-16T02:25:29;12.10;99.90
47350;DHT22;33088;51.982;5.872;2022-10-16T02:28:17;12.10;99.90
47350;DHT22;33088;51.982;5.872;2022-10-16T02:30:59;11.90;99.90
47350;DHT22;33088;51.982;5.872;2022-10-16T02:33:28;11.90;99.90
47350;DHT22;33088;51.982;5.872;2022-10-16T02:35:54;11.90;99.90
47350;DHT22;33088;51.982;5.872;2022-10-16T02:38:22;11.80;99.90
47350;DHT22;33088;51.982;5.872;2022-10-16T02:40:48;11.90;99.90
47350;DHT22;33088;51.982;5.872;2022-10-16T02:43:14;11.80;99.90
47350;DHT22;33088;51.982;5.872;2022-10-16T02:45:43;11.80;99.90
47350;DHT22;33088;51.982;5.872;2022-10-16T02:48:09;11.80;99.90
47350;DHT22;33088;51.982;5.872;2022-10-16T02:50:35;11.80;99.90
47350;DHT22;33088;51.982;5.872;2022-10-16T02:53:01;12.00;99.90
47350;DHT22;33088;51.982;5.872;2022-10-16T02:55:27;11.80;99.90
47350;DHT22;33088;51.982;5.872;2022-10-16T02:57:53;11.70;99.90
47350;DHT22;33088;51.982;5.872;2022-10-16T03:00:20;11.70;99.90
47350;DHT22;33088;51.982;5.872;2022-10-16T03:02:46;11.60;99.90
47350;DHT22;33088;51.982;5.872;2022-10-16T03:05:12;11.60;99.90
47350;DHT22;33088;51.982;5.872;2022-10-16T03:07:38;11.70;99.90
47350;DHT22;33088;51.982;5.872;2022-10-16T03:10:04;11.70;99.90
47350;DHT22;33088;51.982;5.872;2022-10-16T03:12:30;11.80;99.90
47350;DHT22;33088;51.982;5.872;2022-10-16T03:14:56;11.90;99.90
47350;DHT22;33088;51.982;5.872;2022-10-16T03:17:22;11.80;99.90
47350;DHT22;33088;51.982;5.872;2022-10-16T03:19:48;11.80;99.90
47350;DHT22;33088;51.982;5.872;2022-10-16T03:22:14;11.80;99.90
47350;DHT22;33088;51.982;5.872;2022-10-16T03:24:40;11.90;99.90
47350;DHT22;33088;51.982;5.872;2022-10-16T03:27:06;11.70;99.90
47350;DHT22;33088;51.982;5.872;2022-10-16T03:29:32;11.80;99.90
47350;DHT22;33088;51.982;5.872;2022-10-16T03:31:58;11.70;99.90
47350;DHT22;33088;51.982;5.872;2022-10-16T03:34:24;11.70;99.90
47350;DHT22;33088;51.982;5.872;2022-10-16T03:36:50;11.60;99.90
47350;DHT22;33088;51.982;5.872;2022-10-16T03:39:15;11.60;99.90
47350;DHT22;33088;51.982;5.872;2022-10-16T03:41:41;11.60;99.90
47350;DHT22;33088;51.982;5.872;2022-10-16T03:44:07;11.50;99.90
47350;DHT22;33088;51.982;5.872;2022-10-16T03:46:32;11.60;99.90
47350;DHT22;33088;51.982;5.872;2022-10-16T03:48:58;11.60;99.90
47350;DHT22;33088;51.982;5.872;2022-10-16T03:51:24;11.70;99.90
47350;DHT22;33088;51.982;5.872;2022-10-16T03:53:49;11.70;99.90
47350;DHT22;33088;51.982;5.872;2022-10-16T03:56:15;11.70;99.90
47350;DHT22;33088;51.982;5.872;2022-10-16T03:58:41;11.70;99.90
47350;DHT22;33088;51.982;5.872;2022-10-16T04:01:06;11.70;99.90
47350;DHT22;33088;51.982;5.872;2022-10-16T04:03:32;11.70;99.90
47350;DHT22;33088;51.982;5.872;2022-10-16T04:05:58;11.60;99.90
47350;DHT22;33088;51.982;5.872;2022-10-16T04:08:26;11.70;99.90
47350;DHT22;33088;51.982;5.872;2022-10-16T04:10:52;11.60;99.90
47350;DHT22;33088;51.982;5.872;2022-10-16T04:13:18;11.60;99.90
47350;DHT22;33088;51.982;5.872;2022-10-16T04:15:45;11.60;99.90
47350;DHT22;33088;51.982;5.872;2022-10-16T04:18:11;11.50;99.90
47350;DHT22;33088;51.982;5.872;2022-10-16T04:20:36;11.70;99.90
47350;DHT22;33088;51.982;5.872;2022-10-16T04:23:02;11.70;99.90
47350;DHT22;33088;51.982;5.872;2022-10-16T04:25:28;11.90;99.90
47350;DHT22;33088;51.982;5.872;2022-10-16T04:27:54;11.80;99.90
47350;DHT22;33088;51.982;5.872;2022-10-16T04:30:20;11.90;99.90
47350;DHT22;33088;51.982;5.872;2022-10-16T04:32:50;11.80;99.90
47350;DHT22;33088;51.982;5.872;2022-10-16T04:35:17;11.80;99.90
47350;DHT22;33088;51.982;5.872;2022-10-16T04:37:43;11.80;99.90
47350;DHT22;33088;51.982;5.872;2022-10-16T04:40:09;11.90;99.90
47350;DHT22;33088;51.982;5.872;2022-10-16T04:42:35;11.80;99.90
47350;DHT22;33088;51.982;5.872;2022-10-16T04:45:01;11.90;99.90
47350;DHT22;33088;51.982;5.872;2022-10-16T04:47:26;11.90;99.90
47350;DHT22;33088;51.982;5.872;2022-10-16T04:49:52;11.80;99.90
47350;DHT22;33088;51.982;5.872;2022-10-16T04:52:18;11.80;99.90
47350;DHT22;33088;51.982;5.872;2022-10-16T04:54:44;11.80;99.90
47350;DHT22;33088;51.982;5.872;2022-10-16T04:57:11;11.80;99.90
47350;DHT22;33088;51.982;5.872;2022-10-16T04:59:36;11.70;99.90
47350;DHT22;33088;51.982;5.872;2022-10-16T05:02:02;11.80;99.90
47350;DHT22;33088;51.982;5.872;2022-10-16T05:04:28;11.80;99.90
47350;DHT22;33088;51.982;5.872;2022-10-16T05:06:54;11.80;99.90
47350;DHT22;33088;51.982;5.872;2022-10-16T05:09:19;11.80;99.90
47350;DHT22;33088;51.982;5.872;2022-10-16T05:11:45;11.80;99.90
47350;DHT22;33088;51.982;5.872;2022-10-16T05:14:11;11.90;99.90
47350;DHT22;33088;51.982;5.872;2022-10-16T05:16:37;11.80;99.90
47350;DHT22;33088;51.982;5.872;2022-10-16T05:19:03;11.70;99.90
47350;DHT22;33088;51.982;5.872;2022-10-16T05:21:28;11.60;99.90
47350;DHT22;33088;51.982;5.872;2022-10-16T05:23:54;11.60;99.90
47350;DHT22;33088;51.982;5.872;2022-10-16T05:26:20;11.60;99.90
47350;DHT22;33088;51.982;5.872;2022-10-16T05:28:47;11.50;99.90
47350;DHT22;33088;51.982;5.872;2022-10-16T05:31:13;11.50;99.90
47350;DHT22;33088;51.982;5.872;2022-10-16T05:33:38;11.50;99.90
47350;DHT22;33088;51.982;5.872;2022-10-16T05:36:06;11.40;99.90
47350;DHT22;33088;51.982;5.872;2022-10-16T05:38:33;11.40;99.90
47350;DHT22;33088;51.982;5.872;2022-10-16T05:40:59;11.30;99.90
47350;DHT22;33088;51.982;5.872;2022-10-16T05:43:27;11.30;99.90
47350;DHT22;33088;51.982;5.872;2022-10-16T05:46:04;11.30;99.90
47350;DHT22;33088;51.982;5.872;2022-10-16T05:48:31;11.30;99.90
47350;DHT22;33088;51.982;5.872;2022-10-16T05:51:02;11.20;99.90
47350;DHT22;33088;51.982;5.872;2022-10-16T05:53:30;11.20;99.90
47350;DHT22;33088;51.982;5.872;2022-10-16T05:55:57;11.10;99.90
47350;DHT22;33088;51.982;5.872;2022-10-16T05:58:23;11.10;99.90
47350;DHT22;33088;51.982;5.872;2022-10-16T06:00:54;11.10;99.90
47350;DHT22;33088;51.982;5.872;2022-10-16T06:03:19;11.10;99.90
47350;DHT22;33088;51.982;5.872;2022-10-16T06:05:45;11.10;99.90
47350;DHT22;33088;51.982;5.872;2022-10-16T06:08:11;11.10;99.90
47350;DHT22;33088;51.982;5.872;2022-10-16T06:10:36;11.10;99.90
47350;DHT22;33088;51.982;5.872;2022-10-16T06:13:02;11.10;99.90
47350;DHT22;33088;51.982;5.872;2022-10-16T06:15:28;11.10;99.90
47350;DHT22;33088;51.982;5.872;2022-10-16T06:17:53;11.10;99.90
47350;DHT22;33088;51.982;5.872;2022-10-16T06:20:19;11.30;99.90
47350;DHT22;33088;51.982;5.872;2022-10-16T06:22:44;11.20;99.90
47350;DHT22;33088;51.982;5.872;2022-10-16T06:25:10;11.30;99.90
47350;DHT22;33088;51.982;5.872;2022-10-16T06:27:36;11.30;99.90
47350;DHT22;33088;51.982;5.872;2022-10-16T06:30:04;11.40;99.90
47350;DHT22;33088;51.982;5.872;2022-10-16T06:32:30;11.40;99.90
47350;DHT22;33088;51.982;5.872;2022-10-16T06:34:56;11.40;99.90
47350;DHT22;33088;51.982;5.872;2022-10-16T06:37:21;11.50;99.90
47350;DHT22;33088;51.982;5.872;2022-10-16T06:39:47;11.50;99.90
47350;DHT22;33088;51.982;5.872;2022-10-16T06:42:13;11.70;99.90
47350;DHT22;33088;51.982;5.872;2022-10-16T06:44:39;11.70;99.90
47350;DHT22;33088;51.982;5.872;2022-10-16T06:47:04;11.70;99.90
47350;DHT22;33088;51.982;5.872;2022-10-16T06:49:30;11.90;99.90
47350;DHT22;33088;51.982;5.872;2022-10-16T06:51:56;11.80;99.90
47350;DHT22;33088;51.982;5.872;2022-10-16T06:54:21;11.80;99.90
47350;DHT22;33088;51.982;5.872;2022-10-16T06:56:47;11.90;99.90
47350;DHT22;33088;51.982;5.872;2022-10-16T06:59:12;11.90;99.90
47350;DHT22;33088;51.982;5.872;2022-10-16T07:01:38;12.00;99.90
47350;DHT22;33088;51.982;5.872;2022-10-16T07:04:04;12.00;99.90
47350;DHT22;33088;51.982;5.872;2022-10-16T07:06:32;12.10;99.90
47350;DHT22;33088;51.982;5.872;2022-10-16T07:09:01;12.10;99.90
47350;DHT22;33088;51.982;5.872;2022-10-16T07:11:26;12.10;99.90
47350;DHT22;33088;51.982;5.872;2022-10-16T07:13:53;12.20;99.90
47350;DHT22;33088;51.982;5.872;2022-10-16T07:16:20;12.20;99.90
47350;DHT22;33088;51.982;5.872;2022-10-16T07:18:47;12.20;99.90
47350;DHT22;33088;51.982;5.872;2022-10-16T07:21:19;12.30;99.90
47350;DHT22;33088;51.982;5.872;2022-10-16T07:23:50;12.40;99.90
47350;DHT22;33088;51.982;5.872;2022-10-16T07:26:16;12.30;99.90
47350;DHT22;33088;51.982;5.872;2022-10-16T07:28:43;12.40;99.90
47350;DHT22;33088;51.982;5.872;2022-10-16T07:31:11;12.50;99.90
47350;DHT22;33088;51.982;5.872;2022-10-16T07:33:39;12.50;99.90
47350;DHT22;33088;51.982;5.872;2022-10-16T07:36:07;12.50;99.90
47350;DHT22;33088;51.982;5.872;2022-10-16T07:38:33;12.60;99.90
47350;DHT22;33088;51.982;5.872;2022-10-16T07:41:00;12.70;99.90
47350;DHT22;33088;51.982;5.872;2022-10-16T07:43:27;12.70;99.90
47350;DHT22;33088;51.982;5.872;2022-10-16T07:45:53;12.90;99.90
47350;DHT22;33088;51.982;5.872;2022-10-16T07:48:19;12.80;99.90
47350;DHT22;33088;51.982;5.872;2022-10-16T07:50:45;13.00;99.90
47350;DHT22;33088;51.982;5.872;2022-10-16T07:53:11;13.10;99.90
47350;DHT22;33088;51.982;5.872;2022-10-16T07:55:37;13.20;99.90
47350;DHT22;33088;51.982;5.872;2022-10-16T07:58:03;13.40;99.90
47350;DHT22;33088;51.982;5.872;2022-10-16T08:00:30;13.40;99.90
47350;DHT22;33088;51.982;5.872;2022-10-16T08:02:57;13.40;99.90
47350;DHT22;33088;51.982;5.872;2022-10-16T08:05:26;13.40;99.90
47350;DHT22;33088;51.982;5.872;2022-10-16T08:07:52;13.60;99.90
47350;DHT22;33088;51.982;5.872;2022-10-16T08:10:22;13.70;99.90
47350;DHT22;33088;51.982;5.872;2022-10-16T08:12:48;13.80;99.90
47350;DHT22;33088;51.982;5.872;2022-10-16T08:15:14;13.90;99.90
47350;DHT22;33088;51.982;5.872;2022-10-16T08:17:39;13.90;99.90
47350;DHT22;33088;51.982;5.872;2022-10-16T08:20:05;13.90;99.90
47350;DHT22;33088;51.982;5.872;2022-10-16T08:22:31;14.00;99.90
47350;DHT22;33088;51.982;5.872;2022-10-16T08:24:57;14.40;99.90
47350;DHT22;33088;51.982;5.872;2022-10-16T08:27:23;14.30;99.90
47350;DHT22;33088;51.982;5.872;2022-10-16T08:29:49;14.20;99.90
47350;DHT22;33088;51.982;5.872;2022-10-16T08:32:15;14.20;99.90
47350;DHT22;33088;51.982;5.872;2022-10-16T08:34:40;14.20;99.90
47350;DHT22;33088;51.982;5.872;2022-10-16T08:37:06;14.20;99.90
47350;DHT22;33088;51.982;5.872;2022-10-16T08:39:33;14.10;99.90
47350;DHT22;33088;51.982;5.872;2022-10-16T08:47:26;13.90;99.90
47350;DHT22;33088;51.982;5.872;2022-10-16T08:49:57;13.90;99.90
47350;DHT22;33088;51.982;5.872;2022-10-16T08:52:28;14.00;99.90
47350;DHT22;33088;51.982;5.872;2022-10-16T08:54:55;14.00;99.90
47350;DHT22;33088;51.982;5.872;2022-10-16T08:57:24;14.10;99.90
47350;DHT22;33088;51.982;5.872;2022-10-16T08:59:51;14.00;99.90
47350;DHT22;33088;51.982;5.872;2022-10-16T09:02:37;14.10;99.90
47350;DHT22;33088;51.982;5.872;2022-10-16T09:08:03;14.10;99.90
47350;DHT22;33088;51.982;5.872;2022-10-16T09:16:18;14.30;99.90
47350;DHT22;33088;51.982;5.872;2022-10-16T09:18:58;14.30;99.90
47350;DHT22;33088;51.982;5.872;2022-10-16T09:21:30;14.30;99.90
47350;DHT22;33088;51.982;5.872;2022-10-16T09:24:14;14.40;99.90
47350;DHT22;33088;51.982;5.872;2022-10-16T09:26:40;14.50;99.90
47350;DHT22;33088;51.982;5.872;2022-10-16T09:29:06;14.50;99.90
47350;DHT22;33088;51.982;5.872;2022-10-16T09:31:32;14.50;99.90
47350;DHT22;33088;51.982;5.872;2022-10-16T09:34:03;14.60;99.90
47350;DHT22;33088;51.982;5.872;2022-10-16T09:36:39;14.60;99.90
47350;DHT22;33088;51.982;5.872;2022-10-16T09:39:10;14.60;99.90
47350;DHT22;33088;51.982;5.872;2022-10-16T09:41:41;14.70;99.90
47350;DHT22;33088;51.982;5.872;2022-10-16T09:44:30;14.70;99.90
47350;DHT22;33088;51.982;5.872;2022-10-16T09:47:12;14.70;99.90
47350;DHT22;33088;51.982;5.872;2022-10-16T09:49:55;14.70;99.90
47350;DHT22;33088;51.982;5.872;2022-10-16T09:52:23;14.70;99.90
47350;DHT22;33088;51.982;5.872;2022-10-16T09:55:18;14.90;99.90
47350;DHT22;33088;51.982;5.872;2022-10-16T09:57:54;14.80;99.90
47350;DHT22;33088;51.982;5.872;2022-10-16T10:00:21;14.90;99.90
47350;DHT22;33088;51.982;5.872;2022-10-16T10:02:47;15.00;99.90
47350;DHT22;33088;51.982;5.872;2022-10-16T10:05:25;15.00;99.90
47350;DHT22;33088;51.982;5.872;2022-10-16T10:07:57;15.00;99.90
47350;DHT22;33088;51.982;5.872;2022-10-16T10:10:31;15.00;99.90
47350;DHT22;33088;51.982;5.872;2022-10-16T10:12:57;15.10;99.90
47350;DHT22;33088;51.982;5.872;2022-10-16T10:15:24;15.10;99.90
47350;DHT22;33088;51.982;5.872;2022-10-16T10:17:56;15.30;99.90
47350;DHT22;33088;51.982;5.872;2022-10-16T10:20:26;15.40;99.90
47350;DHT22;33088;51.982;5.872;2022-10-16T10:22:53;15.50;99.90
47350;DHT22;33088;51.982;5.872;2022-10-16T10:26:17;15.60;99.90
47350;DHT22;33088;51.982;5.872;2022-10-16T10:31:36;15.70;99.90
47350;DHT22;33088;51.982;5.872;2022-10-16T10:36:36;15.80;99.90
47350;DHT22;33088;51.982;5.872;2022-10-16T10:39:15;16.00;99.90
47350;DHT22;33088;51.982;5.872;2022-10-16T10:46:53;16.50;99.90
47350;DHT22;33088;51.982;5.872;2022-10-16T10:49:44;16.50;99.90
47350;DHT22;33088;51.982;5.872;2022-10-16T11:00:23;16.90;99.90
47350;DHT22;33088;51.982;5.872;2022-10-16T11:05:44;16.80;99.90
47350;DHT22;33088;51.982;5.872;2022-10-16T11:11:24;17.00;99.90
47350;DHT22;33088;51.982;5.872;2022-10-16T11:16:35;17.10;99.90
47350;DHT22;33088;51.982;5.872;2022-10-16T11:19:29;17.10;99.90
47350;DHT22;33088;51.982;5.872;2022-10-16T11:22:11;17.10;99.90
47350;DHT22;33088;51.982;5.872;2022-10-16T11:24:45;16.90;99.90
47350;DHT22;33088;51.982;5.872;2022-10-16T11:27:17;16.90;99.90
47350;DHT22;33088;51.982;5.872;2022-10-16T11:29:59;17.00;99.90
47350;DHT22;33088;51.982;5.872;2022-10-16T11:32:47;17.20;99.90
47350;DHT22;33088;51.982;5.872;2022-10-16T11:35:22;17.20;99.90
47350;DHT22;33088;51.982;5.872;2022-10-16T11:37:50;17.20;99.90
47350;DHT22;33088;51.982;5.872;2022-10-16T11:40:38;17.20;99.90
47350;DHT22;33088;51.982;5.872;2022-10-16T11:43:22;17.20;99.90
47350;DHT22;33088;51.982;5.872;2022-10-16T11:45:52;17.30;99.90
47350;DHT22;33088;51.982;5.872;2022-10-16T11:51:05;17.20;99.90
47350;DHT22;33088;51.982;5.872;2022-10-16T11:56:20;17.10;99.90
47350;DHT22;33088;51.982;5.872;2022-10-16T11:58:57;17.30;99.90
47350;DHT22;33088;51.982;5.872;2022-10-16T12:01:40;17.30;99.90
47350;DHT22;33088;51.982;5.872;2022-10-16T12:09:38;17.40;99.90
47350;DHT22;33088;51.982;5.872;2022-10-16T12:12:05;17.40;99.90
47350;DHT22;33088;51.982;5.872;2022-10-16T12:15:00;17.40;99.90
47350;DHT22;33088;51.982;5.872;2022-10-16T12:17:36;17.40;99.90
47350;DHT22;33088;51.982;5.872;2022-10-16T12:20:19;17.60;99.90
47350;DHT22;33088;51.982;5.872;2022-10-16T12:22:52;17.50;99.90
47350;DHT22;33088;51.982;5.872;2022-10-16T12:25:31;17.70;99.90
47350;DHT22;33088;51.982;5.872;2022-10-16T12:28:19;17.60;99.90
47350;DHT22;33088;51.982;5.872;2022-10-16T12:31:00;17.70;99.90
47350;DHT22;33088;51.982;5.872;2022-10-16T12:33:41;17.80;99.90
47350;DHT22;33088;51.982;5.872;2022-10-16T12:36:15;17.70;99.90
47350;DHT22;33088;51.982;5.872;2022-10-16T12:38:48;17.60;99.90
47350;DHT22;33088;51.982;5.872;2022-10-16T12:41:34;17.50;99.90
47350;DHT22;33088;51.982;5.872;2022-10-16T12:44:05;17.60;99.90
47350;DHT22;33088;51.982;5.872;2022-10-16T12:51:40;17.90;99.90
47350;DHT22;33088;51.982;5.872;2022-10-16T12:54:15;17.90;99.90
47350;DHT22;33088;51.982;5.872;2022-10-16T13:05:26;17.90;99.90
47350;DHT22;33088;51.982;5.872;2022-10-16T13:19:01;18.10;99.90
47350;DHT22;33088;51.982;5.872;2022-10-16T13:21:54;18.10;99.90
47350;DHT22;33088;51.982;5.872;2022-10-16T13:27:24;18.10;99.90
47350;DHT22;33088;51.982;5.872;2022-10-16T13:32:39;18.10;99.90
47350;DHT22;33088;51.982;5.872;2022-10-16T13:35:19;18.20;99.90
47350;DHT22;33088;51.982;5.872;2022-10-16T13:37:45;18.10;99.90
47350;DHT22;33088;51.982;5.872;2022-10-16T13:40:23;17.90;99.90
47350;DHT22;33088;51.982;5.872;2022-10-16T13:42:50;17.70;99.90
47350;DHT22;33088;51.982;5.872;2022-10-16T13:45:20;17.80;99.90
47350;DHT22;33088;51.982;5.872;2022-10-16T13:47:45;17.70;99.90
47350;DHT22;33088;51.982;5.872;2022-10-16T13:50:13;17.70;99.90
47350;DHT22;33088;51.982;5.872;2022-10-16T13:52:40;17.70;99.90
47350;DHT22;33088;51.982;5.872;2022-10-16T13:55:14;17.80;99.90
47350;DHT22;33088;51.982;5.872;2022-10-16T13:57:41;18.00;99.90
47350;DHT22;33088;51.982;5.872;2022-10-16T14:00:25;18.20;99.90
47350;DHT22;33088;51.982;5.872;2022-10-16T14:03:02;18.40;99.90
47350;DHT22;33088;51.982;5.872;2022-10-16T14:05:28;18.40;99.90
47350;DHT22;33088;51.982;5.872;2022-10-16T14:07:55;18.40;99.90
47350;DHT22;33088;51.982;5.872;2022-10-16T14:10:25;18.30;99.90
47350;DHT22;33088;51.982;5.872;2022-10-16T14:12:59;18.20;99.90
47350;DHT22;33088;51.982;5.872;2022-10-16T14:15:26;18.00;99.90
47350;DHT22;33088;51.982;5.872;2022-10-16T14:17:52;18.10;99.90
47350;DHT22;33088;51.982;5.872;2022-10-16T14:20:20;18.00;99.90
47350;DHT22;33088;51.982;5.872;2022-10-16T14:22:46;17.80;99.90
47350;DHT22;33088;51.982;5.872;2022-10-16T14:25:23;17.90;99.90
47350;DHT22;33088;51.982;5.872;2022-10-16T14:28:20;18.00;99.90
47350;DHT22;33088;51.982;5.872;2022-10-16T14:30:54;17.90;99.90
47350;DHT22;33088;51.982;5.872;2022-10-16T14:33:24;17.90;99.90
47350;DHT22;33088;51.982;5.872;2022-10-16T14:36:12;17.90;99.90
47350;DHT22;33088;51.982;5.872;2022-10-16T14:38:40;17.90;99.90
47350;DHT22;33088;51.982;5.872;2022-10-16T14:41:06;17.90;99.90
47350;DHT22;33088;51.982;5.872;2022-10-16T14:45:59;17.80;99.90
47350;DHT22;33088;51.982;5.872;2022-10-16T14:48:26;17.70;99.90
47350;DHT22;33088;51.982;5.872;2022-10-16T14:50:52;17.60;99.90
47350;DHT22;33088;51.982;5.872;2022-10-16T14:53:18;17.60;99.90
47350;DHT22;33088;51.982;5.872;2022-10-16T14:55:43;17.40;99.90
47350;DHT22;33088;51.982;5.872;2022-10-16T14:58:30;17.30;99.90
47350;DHT22;33088;51.982;5.872;2022-10-16T15:00:56;17.10;99.90
47350;DHT22;33088;51.982;5.872;2022-10-16T15:03:21;17.30;99.90
47350;DHT22;33088;51.982;5.872;2022-10-16T15:05:48;17.20;99.90
47350;DHT22;33088;51.982;5.872;2022-10-16T15:08:13;17.20;99.90
47350;DHT22;33088;51.982;5.872;2022-10-16T15:10:42;17.30;99.90
47350;DHT22;33088;51.982;5.872;2022-10-16T15:13:12;17.30;99.90
47350;DHT22;33088;51.982;5.872;2022-10-16T15:15:44;17.30;99.90
47350;DHT22;33088;51.982;5.872;2022-10-16T15:18:11;17.30;99.90
47350;DHT22;33088;51.982;5.872;2022-10-16T15:20:38;17.30;99.90
47350;DHT22;33088;51.982;5.872;2022-10-16T15:23:20;17.30;99.90
47350;DHT22;33088;51.982;5.872;2022-10-16T15:25:54;17.10;99.90
47350;DHT22;33088;51.982;5.872;2022-10-16T15:28:21;17.00;99.90
47350;DHT22;33088;51.982;5.872;2022-10-16T15:30:51;16.90;99.90
47350;DHT22;33088;51.982;5.872;2022-10-16T15:33:26;16.90;99.90
47350;DHT22;33088;51.982;5.872;2022-10-16T15:35:58;16.70;99.90
47350;DHT22;33088;51.982;5.872;2022-10-16T15:38:24;16.60;99.90
47350;DHT22;33088;51.982;5.872;2022-10-16T15:40:50;16.50;99.90
47350;DHT22;33088;51.982;5.872;2022-10-16T15:43:18;16.40;99.90
47350;DHT22;33088;51.982;5.872;2022-10-16T15:45:47;16.40;99.90
47350;DHT22;33088;51.982;5.872;2022-10-16T15:48:23;16.40;99.90
47350;DHT22;33088;51.982;5.872;2022-10-16T15:50:48;16.40;99.90
47350;DHT22;33088;51.982;5.872;2022-10-16T15:53:14;16.50;99.90
47350;DHT22;33088;51.982;5.872;2022-10-16T15:55:40;16.40;99.90
47350;DHT22;33088;51.982;5.872;2022-10-16T15:58:06;16.40;99.90
47350;DHT22;33088;51.982;5.872;2022-10-16T16:00:31;16.40;99.90
47350;DHT22;33088;51.982;5.872;2022-10-16T16:02:57;16.30;99.90
47350;DHT22;33088;51.982;5.872;2022-10-16T16:05:23;16.30;99.90
47350;DHT22;33088;51.982;5.872;2022-10-16T16:07:49;16.10;99.90
47350;DHT22;33088;51.982;5.872;2022-10-16T16:10:16;16.10;99.90
47350;DHT22;33088;51.982;5.872;2022-10-16T16:12:42;16.10;99.90
47350;DHT22;33088;51.982;5.872;2022-10-16T16:15:08;16.00;99.90
47350;DHT22;33088;51.982;5.872;2022-10-16T16:17:35;16.00;99.90
47350;DHT22;33088;51.982;5.872;2022-10-16T16:20:02;15.80;99.90
47350;DHT22;33088;51.982;5.872;2022-10-16T16:22:29;15.90;99.90
47350;DHT22;33088;51.982;5.872;2022-10-16T16:24:55;15.90;99.90
47350;DHT22;33088;51.982;5.872;2022-10-16T16:27:20;16.10;99.90
47350;DHT22;33088;51.982;5.872;2022-10-16T16:29:47;15.80;99.90
47350;DHT22;33088;51.982;5.872;2022-10-16T16:32:13;15.80;99.90
47350;DHT22;33088;51.982;5.872;2022-10-16T16:34:38;15.80;99.90
47350;DHT22;33088;51.982;5.872;2022-10-16T16:37:04;15.80;99.90
47350;DHT22;33088;51.982;5.872;2022-10-16T16:39:30;15.70;99.90
47350;DHT22;33088;51.982;5.872;2022-10-16T16:41:57;15.80;99.90
47350;DHT22;33088;51.982;5.872;2022-10-16T16:44:24;15.70;99.90
47350;DHT22;33088;51.982;5.872;2022-10-16T16:46:50;15.50;99.90
47350;DHT22;33088;51.982;5.872;2022-10-16T16:49:16;15.50;99.90
47350;DHT22;33088;51.982;5.872;2022-10-16T16:51:42;15.50;99.90
47350;DHT22;33088;51.982;5.872;2022-10-16T16:54:08;15.50;99.90
47350;DHT22;33088;51.982;5.872;2022-10-16T16:56:34;15.40;99.90
47350;DHT22;33088;51.982;5.872;2022-10-16T16:59:01;15.40;99.90
47350;DHT22;33088;51.982;5.872;2022-10-16T17:01:27;15.40;99.90
47350;DHT22;33088;51.982;5.872;2022-10-16T17:03:54;15.40;99.90
47350;DHT22;33088;51.982;5.872;2022-10-16T17:06:22;15.40;99.90
47350;DHT22;33088;51.982;5.872;2022-10-16T17:08:49;15.40;99.90
47350;DHT22;33088;51.982;5.872;2022-10-16T17:11:22;15.40;99.90
47350;DHT22;33088;51.982;5.872;2022-10-16T17:13:48;15.40;99.90
47350;DHT22;33088;51.982;5.872;2022-10-16T17:16:15;15.30;99.90